createdAt,value
2018-06-28T18:30:22.126Z,16.40
2018-06-28T18:32:49.909Z,16.30
2018-06-28T18:35:17.791Z,16.30
2018-06-28T18:37:45.710Z,16.30
2018-06-28T18:40:13.671Z,16.20
2018-06-28T18:42:41.578Z,16.10
2018-06-28T18:45:09.536Z,16.00
2018-06-28T18:47:37.483Z,15.90
2018-06-28T18:50:05.561Z,16.00
2018-06-28T18:52:33.458Z,15.80
2018-06-28T18:55:01.528Z,15.90
2018-06-28T18:57:29.426Z,16.00
2018-06-28T18:59:57.282Z,15.70
2018-06-28T19:02:25.301Z,15.70
2018-06-28T19:04:53.179Z,15.70
2018-06-28T19:07:21.111Z,15.70
2018-06-28T19:10:07.200Z,15.60
2018-06-28T19:12:35.115Z,15.50
2018-06-28T19:15:21.072Z,15.50
2018-06-28T19:17:49.013Z,15.40
2018-06-28T19:20:16.874Z,15.40
2018-06-28T19:23:03.088Z,15.40
2018-06-28T19:25:30.951Z,15.50
2018-06-28T19:27:58.892Z,15.30
2018-06-28T19:30:45.139Z,15.20
2018-06-28T19:33:13.029Z,15.30
2018-06-28T19:35:41.013Z,15.30
2018-06-28T19:38:08.843Z,15.20
2018-06-28T19:40:54.912Z,15.30
2018-06-28T19:43:22.778Z,15.30
2018-06-28T19:45:50.687Z,14.90
2018-06-28T19:48:18.564Z,15.10
2018-06-28T19:51:05.067Z,15.20
2018-06-28T19:53:32.961Z,15.30
2018-06-28T19:56:00.889Z,15.20
2018-06-28T19:58:28.752Z,15.20
2018-06-28T20:01:14.704Z,15.20
2018-06-28T20:04:00.908Z,15.10
2018-06-28T20:06:28.828Z,15.10
2018-06-28T20:08:56.697Z,14.90
2018-06-28T20:11:24.583Z,14.90
2018-06-28T20:14:10.490Z,15.00
2018-06-28T20:16:56.724Z,15.00
2018-06-28T20:19:43.135Z,15.00
2018-06-28T20:22:11.051Z,15.00
2018-06-28T20:24:39.037Z,14.90
2018-06-28T20:27:25.205Z,14.80
2018-06-28T20:30:11.228Z,14.80
2018-06-28T20:32:57.013Z,14.80
2018-06-28T20:35:24.910Z,14.70
2018-06-28T20:37:52.804Z,14.80
2018-06-28T20:40:20.708Z,14.80
2018-06-28T20:42:49.406Z,14.70
2018-06-28T20:45:17.329Z,14.80
2018-06-28T20:47:45.233Z,14.80
2018-06-28T20:50:13.123Z,14.80
2018-06-28T20:52:41.051Z,14.60
2018-06-28T20:55:08.919Z,14.70
2018-06-28T20:57:36.813Z,14.70
2018-06-28T21:00:09.488Z,14.60
2018-06-28T21:02:37.883Z,14.70
2018-06-28T21:05:07.422Z,14.60
2018-06-28T21:07:35.314Z,14.50
2018-06-28T21:10:03.309Z,14.50
2018-06-28T21:12:31.163Z,14.50
2018-06-28T21:14:59.050Z,14.60
2018-06-28T21:17:26.954Z,14.60
2018-06-28T21:19:54.812Z,14.40
2018-06-28T21:22:22.724Z,14.50
2018-06-28T21:24:50.639Z,14.60
2018-06-28T21:27:18.510Z,14.60
2018-06-28T21:29:46.617Z,14.50
2018-06-28T21:32:14.517Z,14.60
2018-06-28T21:34:42.443Z,14.50
2018-06-28T21:37:10.299Z,14.40
2018-06-28T21:39:38.163Z,14.50
2018-06-28T21:42:06.412Z,14.30
2018-06-28T21:44:34.427Z,14.40
2018-06-28T21:47:02.400Z,14.40
2018-06-28T21:49:30.282Z,14.50
2018-06-28T21:51:58.205Z,14.60
2018-06-28T21:54:26.095Z,14.60
2018-06-28T21:56:54.830Z,14.60
2018-06-28T21:59:22.697Z,14.60
2018-06-28T22:01:52.087Z,14.60
2018-06-28T22:04:20.335Z,14.60
2018-06-28T22:06:49.058Z,14.50
2018-06-28T22:09:17.900Z,14.60
2018-06-28T22:11:45.821Z,14.60
2018-06-28T22:14:15.200Z,14.50
2018-06-28T22:16:43.009Z,14.50
2018-06-28T22:19:10.899Z,14.50
2018-06-28T22:21:39.101Z,14.50
2018-06-28T22:24:06.991Z,14.30
2018-06-28T22:26:35.022Z,14.40
2018-06-28T22:29:03.082Z,14.50
2018-06-28T22:31:30.975Z,14.40
2018-06-28T22:33:58.939Z,14.40
2018-06-28T22:36:26.760Z,14.30
2018-06-28T22:38:54.652Z,14.40
2018-06-28T22:41:22.567Z,14.50
2018-06-28T22:43:50.923Z,14.50
2018-06-28T22:46:18.827Z,14.40
2018-06-28T22:48:46.752Z,14.50
2018-06-28T22:51:14.645Z,14.50
2018-06-28T22:53:42.585Z,14.50
2018-06-28T22:56:10.483Z,14.50
2018-06-28T22:58:38.358Z,14.50
2018-06-28T23:01:06.284Z,14.50
2018-06-28T23:03:34.166Z,14.50
2018-06-28T23:06:02.077Z,14.50
2018-06-28T23:08:29.950Z,14.40
2018-06-28T23:10:57.845Z,14.40
2018-06-28T23:13:25.760Z,14.40
2018-06-28T23:15:53.665Z,14.40
2018-06-28T23:18:21.555Z,14.60
2018-06-28T23:20:49.444Z,14.60
2018-06-28T23:23:17.318Z,14.60
2018-06-28T23:25:45.244Z,14.50
2018-06-28T23:28:13.128Z,14.60
2018-06-28T23:30:41.047Z,14.50
2018-06-28T23:33:08.941Z,14.50
2018-06-28T23:35:36.826Z,14.50
2018-06-28T23:38:04.893Z,14.50
2018-06-28T23:40:32.753Z,14.50
2018-06-28T23:43:00.727Z,14.50
2018-06-28T23:45:28.634Z,14.50
2018-06-28T23:47:56.497Z,14.50
2018-06-28T23:50:24.417Z,14.50
2018-06-28T23:52:52.683Z,14.50
2018-06-28T23:55:20.573Z,14.50
2018-06-28T23:57:48.531Z,14.50
